Time;durP1;ratioP1;P1;durP2;ratioP2;P2;SDS_P1;SDS_P2;PMS_P1;PMS_P2;Temp;Humidity;BMP_temperature;BMP_pressure;BME280_temperature;BME280_humidity;BME280_pressure;Samples;Min_cycle;Max_cycle;Signal;HPM_P1;HPM_P2
2020/12/23 00:00:36;;;;;;;9.93;2.90;;;8.80;99.90;;;;;;5108834;28;20216;-81
2020/12/23 00:03:03;;;;;;;6.33;2.47;;;8.80;99.90;;;;;;5109727;28;20296;-81
2020/12/23 00:05:29;;;;;;;7.43;2.13;;;8.80;99.90;;;;;;5110154;28;20209;-81
2020/12/23 00:07:55;;;;;;;8.57;2.37;;;8.80;99.90;;;;;;5109769;28;20213;-80
2020/12/23 00:10:22;;;;;;;9.57;2.00;;;8.80;99.90;;;;;;5109644;28;20279;-81
2020/12/23 00:12:49;;;;;;;7.40;2.63;;;8.80;99.90;;;;;;5109526;27;20292;-80
2020/12/23 00:15:15;;;;;;;9.03;3.47;;;8.70;99.90;;;;;;5110086;28;20206;-80
2020/12/23 00:17:42;;;;;;;12.07;2.67;;;8.70;99.90;;;;;;5109364;28;20222;-80
2020/12/23 00:20:08;;;;;;;8.43;2.53;;;8.80;99.90;;;;;;5109702;28;20285;-79
2020/12/23 00:22:35;;;;;;;9.20;2.17;;;8.80;99.90;;;;;;5109560;28;20258;-79
2020/12/23 00:25:02;;;;;;;6.33;2.33;;;8.70;99.90;;;;;;5109327;28;20230;-83
2020/12/23 00:27:30;;;;;;;6.03;1.70;;;8.70;99.90;;;;;;5109422;28;20209;-82
2020/12/23 00:29:56;;;;;;;8.70;2.47;;;8.70;99.90;;;;;;5109353;28;20804;-83
2020/12/23 00:32:27;;;;;;;8.37;2.37;;;8.70;99.90;;;;;;5109694;28;20208;-82
2020/12/23 00:34:53;;;;;;;9.73;2.27;;;8.70;99.90;;;;;;5109152;28;20285;-81
2020/12/23 00:37:19;;;;;;;8.50;2.20;;;8.70;99.90;;;;;;5109357;28;20205;-82
2020/12/23 00:39:46;;;;;;;6.50;1.90;;;8.70;99.90;;;;;;5109471;28;20230;-82
2020/12/23 00:42:12;;;;;;;10.83;2.80;;;8.70;99.90;;;;;;5107456;28;20274;-83
2020/12/23 00:44:39;;;;;;;6.90;2.07;;;8.70;99.90;;;;;;5108804;28;20621;-83
2020/12/23 00:47:06;;;;;;;5.20;2.30;;;8.70;99.90;;;;;;5109092;28;20214;-79
2020/12/23 00:49:32;;;;;;;9.10;2.23;;;8.70;99.90;;;;;;5108850;28;20231;-79
2020/12/23 00:51:58;;;;;;;11.73;2.70;;;8.70;99.90;;;;;;5108700;28;20763;-79
2020/12/23 00:54:25;;;;;;;7.97;1.90;;;8.70;99.90;;;;;;5108737;27;20325;-79
2020/12/23 00:56:51;;;;;;;9.53;2.07;;;8.60;99.90;;;;;;5109011;28;20220;-80
2020/12/23 00:59:17;;;;;;;9.47;1.80;;;8.60;99.90;;;;;;5109092;28;20553;-81
2020/12/23 01:01:44;;;;;;;6.60;1.60;;;8.60;99.90;;;;;;5108415;28;20311;-81
2020/12/23 01:04:11;;;;;;;5.33;2.00;;;8.60;99.90;;;;;;5108383;28;20213;-82
2020/12/23 01:06:37;;;;;;;8.33;1.93;;;8.60;99.90;;;;;;5108392;28;20198;-78
2020/12/23 01:09:04;;;;;;;6.43;2.00;;;8.60;99.90;;;;;;5107793;28;20293;-81
2020/12/23 01:11:30;;;;;;;7.70;1.90;;;8.60;99.90;;;;;;5108907;28;20212;-81
2020/12/23 01:13:57;;;;;;;5.10;1.83;;;8.60;99.90;;;;;;5108525;28;20293;-79
2020/12/23 01:16:24;;;;;;;6.03;2.13;;;8.60;99.90;;;;;;5108667;28;20313;-81
2020/12/23 01:18:51;;;;;;;10.13;1.97;;;8.60;99.90;;;;;;5108509;28;20229;-80
2020/12/23 01:21:18;;;;;;;6.73;1.77;;;8.60;99.90;;;;;;5108895;28;20304;-79
2020/12/23 01:23:45;;;;;;;7.60;1.70;;;8.60;99.90;;;;;;5108461;28;20297;-79
2020/12/23 01:26:11;;;;;;;6.97;1.83;;;8.50;99.90;;;;;;5108498;28;20336;-79
2020/12/23 01:28:38;;;;;;;9.30;2.03;;;8.50;99.90;;;;;;5108330;28;20647;-79
2020/12/23 01:31:05;;;;;;;4.20;1.77;;;8.50;99.90;;;;;;5108348;28;20208;-79
2020/12/23 01:33:31;;;;;;;10.07;2.23;;;8.50;99.90;;;;;;5108560;28;20198;-80
2020/12/23 01:35:58;;;;;;;9.03;1.97;;;8.50;99.90;;;;;;5108280;28;20208;-79
2020/12/23 01:38:25;;;;;;;6.90;1.73;;;8.60;99.90;;;;;;5108274;28;20282;-79
2020/12/23 01:40:56;;;;;;;5.27;1.87;;;8.60;99.90;;;;;;5108224;28;20202;-79
2020/12/23 01:43:23;;;;;;;6.63;1.53;;;8.60;99.90;;;;;;5108437;28;20289;-79
2020/12/23 01:45:49;;;;;;;8.23;2.53;;;8.50;99.90;;;;;;5108217;28;20206;-78
2020/12/23 01:48:20;;;;;;;6.17;2.00;;;8.50;99.90;;;;;;5107880;28;20210;-81
2020/12/23 01:50:46;;;;;;;5.27;1.90;;;8.50;99.90;;;;;;5107931;28;20210;-80
2020/12/23 01:53:16;;;;;;;9.63;2.30;;;8.50;99.90;;;;;;5107655;28;20214;-81
2020/12/23 01:55:45;;;;;;;5.00;1.70;;;8.50;99.90;;;;;;5108242;28;20221;-80
2020/12/23 01:58:12;;;;;;;5.87;1.80;;;8.40;99.90;;;;;;5107711;28;20206;-82
2020/12/23 02:00:39;;;;;;;6.43;1.97;;;8.40;99.90;;;;;;5108092;28;20202;-81
2020/12/23 02:03:09;;;;;;;5.57;2.27;;;8.40;99.90;;;;;;5107947;28;20201;-82
2020/12/23 02:05:35;;;;;;;9.23;1.70;;;8.40;99.90;;;;;;5108223;28;20264;-81
2020/12/23 02:08:02;;;;;;;7.47;1.70;;;8.40;99.90;;;;;;5107706;28;20209;-81
2020/12/23 02:10:29;;;;;;;9.07;2.20;;;8.40;99.90;;;;;;5107962;28;20194;-81
2020/12/23 02:12:56;;;;;;;10.13;1.67;;;8.40;99.90;;;;;;5107749;28;20220;-81
2020/12/23 02:15:22;;;;;;;8.27;2.13;;;8.40;99.90;;;;;;5091376;28;20211;-80
2020/12/23 02:17:48;;;;;;;7.60;1.70;;;8.40;99.90;;;;;;5087388;28;20209;-80
2020/12/23 02:20:16;;;;;;;3.93;1.50;;;8.40;99.90;;;;;;5089817;28;20238;-81
2020/12/23 02:22:44;;;;;;;5.57;1.87;;;8.40;99.90;;;;;;5091452;28;20290;-81
2020/12/23 02:25:10;;;;;;;14.07;2.20;;;8.40;99.90;;;;;;5091033;28;20227;-81
2020/12/23 02:27:37;;;;;;;7.43;2.10;;;8.40;99.90;;;;;;5090887;28;20207;-81
2020/12/23 02:30:06;;;;;;;4.73;1.43;;;8.40;99.90;;;;;;5091025;28;20766;-81
2020/12/23 02:32:32;;;;;;;6.93;2.10;;;8.30;99.90;;;;;;5090874;28;20218;-79
2020/12/23 02:34:59;;;;;;;11.10;1.73;;;8.30;99.90;;;;;;5091423;28;20301;-78
2020/12/23 02:37:26;;;;;;;6.37;2.07;;;8.30;99.90;;;;;;5090717;28;20206;-78
2020/12/23 02:39:55;;;;;;;4.70;1.63;;;8.30;99.90;;;;;;5090784;28;21009;-81
2020/12/23 02:42:24;;;;;;;8.60;1.53;;;8.30;99.90;;;;;;5090735;28;20206;-80
2020/12/23 02:44:51;;;;;;;9.70;1.77;;;8.30;99.90;;;;;;5090943;28;20387;-81
2020/12/23 02:47:18;;;;;;;9.10;1.90;;;8.30;99.90;;;;;;5090899;28;20206;-80
2020/12/23 02:49:45;;;;;;;8.77;2.07;;;8.20;99.90;;;;;;5090837;28;20263;-78
2020/12/23 02:52:13;;;;;;;5.23;2.00;;;8.30;99.90;;;;;;5090998;28;20644;-78
2020/12/23 02:54:39;;;;;;;6.17;1.60;;;8.30;99.90;;;;;;5090786;28;20732;-78
2020/12/23 02:57:07;;;;;;;8.53;2.00;;;8.20;99.90;;;;;;5090730;28;20247;-78
2020/12/23 02:59:34;;;;;;;7.43;1.57;;;8.30;99.90;;;;;;5091047;28;20237;-80
2020/12/23 03:02:00;;;;;;;5.27;1.60;;;8.30;99.90;;;;;;5090219;28;20209;-79
2020/12/23 03:04:27;;;;;;;4.33;1.50;;;8.20;99.90;;;;;;5090682;28;20309;-78
2020/12/23 03:06:53;;;;;;;7.57;2.00;;;8.20;99.90;;;;;;5090700;28;20207;-79
2020/12/23 03:09:20;;;;;;;7.73;1.77;;;8.20;99.90;;;;;;5090643;28;20206;-78
2020/12/23 03:11:46;;;;;;;4.17;1.40;;;8.20;99.90;;;;;;5090362;28;20215;-78
2020/12/23 03:14:13;;;;;;;8.93;1.67;;;8.20;99.90;;;;;;5090221;28;20210;-78
2020/12/23 03:16:40;;;;;;;7.07;1.77;;;8.20;99.90;;;;;;5090249;28;20761;-78
2020/12/23 03:19:06;;;;;;;9.63;2.30;;;8.20;99.90;;;;;;5090142;28;20724;-79
2020/12/23 03:21:32;;;;;;;5.00;1.77;;;8.20;99.90;;;;;;5090255;28;20209;-77
2020/12/23 03:23:59;;;;;;;5.10;1.53;;;8.20;99.90;;;;;;5090809;28;20297;-80
2020/12/23 03:26:26;;;;;;;7.57;1.80;;;8.20;99.90;;;;;;5090539;28;20211;-80
2020/12/23 03:28:52;;;;;;;6.30;1.70;;;8.20;99.90;;;;;;5090558;28;20232;-81
2020/12/23 03:31:19;;;;;;;6.60;1.53;;;8.20;99.90;;;;;;5101546;28;20206;-81
2020/12/23 03:33:46;;;;;;;6.67;2.13;;;8.20;99.90;;;;;;5092676;28;20218;-80
2020/12/23 03:36:12;;;;;;;7.87;1.70;;;8.20;99.90;;;;;;5090154;28;20213;-79
2020/12/23 03:38:38;;;;;;;7.40;1.83;;;8.10;99.90;;;;;;5090037;28;20230;-80
2020/12/23 03:41:05;;;;;;;5.50;2.00;;;8.20;99.90;;;;;;5090466;28;20225;-80
2020/12/23 03:43:32;;;;;;;8.33;2.10;;;8.10;99.90;;;;;;5098705;28;20213;-79
2020/12/23 03:45:58;;;;;;;10.07;1.67;;;8.20;99.90;;;;;;5110246;28;20210;-79
2020/12/23 03:48:25;;;;;;;5.33;2.00;;;8.20;99.90;;;;;;5110520;28;20285;-81
2020/12/23 03:50:52;;;;;;;6.67;2.03;;;8.20;99.90;;;;;;5110215;28;20569;-80
2020/12/23 03:53:18;;;;;;;8.43;2.10;;;8.20;99.90;;;;;;5109879;28;20238;-80
2020/12/23 03:55:45;;;;;;;6.70;2.20;;;8.20;99.90;;;;;;5110327;28;20243;-79
2020/12/23 03:58:11;;;;;;;10.70;1.77;;;8.20;99.90;;;;;;5109848;28;20210;-80
2020/12/23 04:00:37;;;;;;;10.47;2.10;;;8.20;99.90;;;;;;5090573;28;20321;-77
2020/12/23 04:03:04;;;;;;;6.90;2.03;;;8.20;99.90;;;;;;5089559;28;20203;-77
2020/12/23 04:05:31;;;;;;;6.57;1.90;;;8.20;99.90;;;;;;5089524;28;20203;-78
2020/12/23 04:07:57;;;;;;;5.03;1.80;;;8.20;99.90;;;;;;5089132;28;20207;-78
2020/12/23 04:10:24;;;;;;;5.13;1.70;;;8.20;99.90;;;;;;5089312;28;21052;-78
2020/12/23 04:12:50;;;;;;;3.80;1.40;;;8.20;99.90;;;;;;5089386;28;20663;-78
2020/12/23 04:15:16;;;;;;;5.70;1.60;;;8.20;99.90;;;;;;5089128;28;20752;-78
2020/12/23 04:17:43;;;;;;;5.17;1.83;;;8.10;99.90;;;;;;5089211;28;20289;-78
2020/12/23 04:20:09;;;;;;;5.37;1.90;;;8.20;99.90;;;;;;5089149;28;20333;-78
2020/12/23 04:22:37;;;;;;;8.53;1.73;;;8.10;99.90;;;;;;5089351;28;20255;-79
2020/12/23 04:25:05;;;;;;;6.43;1.80;;;8.10;99.90;;;;;;5088691;28;20231;-78
2020/12/23 04:27:32;;;;;;;7.97;1.77;;;8.10;99.90;;;;;;5089007;28;20790;-78
2020/12/23 04:29:58;;;;;;;8.70;1.60;;;8.10;99.90;;;;;;5088761;28;20256;-78
2020/12/23 04:32:25;;;;;;;7.03;1.50;;;8.10;99.90;;;;;;5088722;28;20621;-78
2020/12/23 04:34:51;;;;;;;4.50;1.40;;;8.10;99.90;;;;;;5088982;28;20209;-77
2020/12/23 04:37:17;;;;;;;5.50;1.30;;;8.00;99.90;;;;;;5088701;28;20322;-77
2020/12/23 04:39:45;;;;;;;10.20;1.83;;;8.10;99.90;;;;;;5088661;28;20649;-76
2020/12/23 04:42:12;;;;;;;7.47;1.80;;;8.10;99.90;;;;;;5088729;28;20211;-76
2020/12/23 04:44:39;;;;;;;5.00;1.50;;;8.10;99.90;;;;;;5088481;28;20348;-76
2020/12/23 04:47:09;;;;;;;3.90;1.53;;;8.00;99.90;;;;;;5088135;28;20242;-77
2020/12/23 04:49:37;;;;;;;6.83;1.90;;;8.10;99.90;;;;;;5088333;28;20699;-79
2020/12/23 04:52:07;;;;;;;5.23;1.73;;;8.10;99.90;;;;;;5088569;28;20234;-77
2020/12/23 04:54:34;;;;;;;8.03;2.37;;;8.10;99.90;;;;;;5088069;28;20721;-77
2020/12/23 04:57:02;;;;;;;7.37;2.20;;;8.00;99.90;;;;;;5088286;28;20206;-77
2020/12/23 04:59:28;;;;;;;5.53;2.10;;;8.10;99.90;;;;;;5088308;28;20231;-77
2020/12/23 05:01:57;;;;;;;9.03;2.43;;;8.10;99.90;;;;;;5088523;28;20238;-77
2020/12/23 05:04:25;;;;;;;7.67;3.03;;;8.10;99.90;;;;;;5088091;28;20206;-77
2020/12/23 05:07:00;;;;;;;10.97;2.47;;;8.10;99.90;;;;;;5088340;28;20198;-76
2020/12/23 05:09:27;;;;;;;6.37;2.57;;;8.10;99.90;;;;;;5087971;28;20209;-77
2020/12/23 05:11:54;;;;;;;3.83;2.07;;;8.10;99.90;;;;;;5088059;28;20203;-77
2020/12/23 05:14:22;;;;;;;5.40;1.77;;;8.10;99.90;;;;;;5088294;28;20216;-76
2020/12/23 05:16:49;;;;;;;8.37;2.00;;;8.10;99.90;;;;;;5088053;28;20817;-77
2020/12/23 05:19:17;;;;;;;7.00;1.90;;;8.10;99.90;;;;;;5087839;28;20227;-76
2020/12/23 05:21:45;;;;;;;4.50;2.00;;;8.10;99.90;;;;;;5087801;28;20547;-78
2020/12/23 05:24:11;;;;;;;5.17;2.33;;;8.10;99.90;;;;;;5087917;28;20229;-76
2020/12/23 05:26:40;;;;;;;6.30;2.20;;;8.10;99.90;;;;;;5087790;28;21079;-78
2020/12/23 05:29:07;;;;;;;5.87;2.60;;;8.10;99.90;;;;;;5087752;28;20673;-76
2020/12/23 05:31:35;;;;;;;8.90;2.53;;;8.10;99.90;;;;;;5087872;28;20210;-77
2020/12/23 05:34:04;;;;;;;7.27;2.47;;;8.10;99.90;;;;;;5088047;28;20252;-76
2020/12/23 05:36:32;;;;;;;6.20;2.37;;;8.10;99.90;;;;;;5088024;28;20198;-76
2020/12/23 05:38:58;;;;;;;6.47;2.43;;;8.10;99.90;;;;;;5087880;28;20642;-76
2020/12/23 05:41:25;;;;;;;15.20;3.37;;;8.10;99.90;;;;;;5088070;28;20203;-76
2020/12/23 05:43:52;;;;;;;8.33;3.30;;;8.10;99.90;;;;;;5087795;28;20288;-79
2020/12/23 05:46:18;;;;;;;6.87;2.47;;;8.10;99.90;;;;;;5088046;28;20205;-78
2020/12/23 05:48:45;;;;;;;6.33;2.10;;;8.10;99.90;;;;;;5087910;28;20245;-78
2020/12/23 05:51:12;;;;;;;9.20;2.43;;;8.10;99.90;;;;;;5087925;28;20584;-78
2020/12/23 05:53:39;;;;;;;9.47;2.20;;;8.10;99.90;;;;;;5087220;28;20317;-78
2020/12/23 05:56:07;;;;;;;8.23;1.97;;;8.00;99.90;;;;;;5087509;28;20209;-78
2020/12/23 05:58:35;;;;;;;5.87;2.10;;;8.00;99.90;;;;;;5087384;28;20297;-78
2020/12/23 06:01:03;;;;;;;9.33;2.13;;;8.00;99.90;;;;;;5087463;28;20672;-78
2020/12/23 06:03:54;;;;;;;7.93;2.10;;;8.00;99.90;;;;;;5087894;28;20203;-78
2020/12/23 06:06:24;;;;;;;8.37;1.60;;;8.00;99.90;;;;;;5087980;28;20204;-79
2020/12/23 06:08:53;;;;;;;6.80;1.67;;;8.00;99.90;;;;;;5087663;28;20211;-78
2020/12/23 06:11:38;;;;;;;5.47;1.93;;;8.00;99.90;;;;;;5087479;28;20261;-78
2020/12/23 06:14:16;;;;;;;3.77;1.37;;;8.00;99.90;;;;;;5087386;28;20241;-78
2020/12/23 06:16:45;;;;;;;6.53;1.90;;;8.00;99.90;;;;;;5087558;28;20282;-79
2020/12/23 06:19:20;;;;;;;6.63;2.07;;;8.10;99.90;;;;;;5087455;28;20236;-79
2020/12/23 06:21:47;;;;;;;10.67;2.53;;;8.00;99.90;;;;;;5087375;28;20201;-78
2020/12/23 06:24:13;;;;;;;10.80;2.20;;;8.00;99.90;;;;;;5087246;28;20333;-79
2020/12/23 06:26:41;;;;;;;8.60;2.50;;;8.10;99.90;;;;;;5087315;28;20288;-78
2020/12/23 06:29:12;;;;;;;13.30;4.70;;;8.00;99.90;;;;;;5087219;28;20253;-79
2020/12/23 06:31:41;;;;;;;8.20;3.70;;;8.00;99.90;;;;;;5087291;28;20367;-79
2020/12/23 06:34:07;;;;;;;7.40;2.87;;;8.00;99.90;;;;;;5087075;28;20203;-79
2020/12/23 06:36:35;;;;;;;9.50;2.50;;;8.00;99.90;;;;;;5086945;28;20217;-79
2020/12/23 06:39:29;;;;;;;4.57;2.13;;;8.00;99.90;;;;;;5086813;28;20692;-79
2020/12/23 06:42:23;;;;;;;7.80;2.60;;;8.00;99.90;;;;;;5087237;28;20202;-78
2020/12/23 06:45:01;;;;;;;13.63;5.23;;;8.00;99.90;;;;;;5087264;28;20556;-78
2020/12/23 06:47:29;;;;;;;13.10;3.00;;;8.00;99.90;;;;;;5087237;28;20186;-79
2020/12/23 06:49:57;;;;;;;7.30;2.33;;;8.00;99.90;;;;;;5087596;28;20334;-77
2020/12/23 06:52:48;;;;;;;5.03;1.50;;;8.00;99.90;;;;;;5087243;28;20215;-79
2020/12/23 06:55:16;;;;;;;4.50;1.60;;;8.00;99.90;;;;;;5071086;28;20235;-78
2020/12/23 06:58:03;;;;;;;4.67;1.77;;;8.00;99.90;;;;;;5086842;28;20696;-78
2020/12/23 07:00:37;;;;;;;11.07;2.00;;;8.00;99.90;;;;;;5086900;28;20230;-79
2020/12/23 07:03:06;;;;;;;5.73;2.23;;;8.00;99.90;;;;;;5086861;28;20238;-79
2020/12/23 07:05:35;;;;;;;8.87;1.70;;;8.00;99.90;;;;;;5086685;28;20582;-80
2020/12/23 07:08:04;;;;;;;7.17;1.80;;;8.00;99.90;;;;;;5089915;28;20665;-80
2020/12/23 07:10:32;;;;;;;9.50;1.90;;;8.00;99.90;;;;;;5090615;28;20207;-79
2020/12/23 07:13:01;;;;;;;6.47;1.90;;;8.00;99.90;;;;;;5090040;28;20238;-79
2020/12/23 07:15:28;;;;;;;7.80;1.67;;;8.00;99.90;;;;;;5090763;28;20298;-79
2020/12/23 07:17:58;;;;;;;7.70;1.97;;;7.90;99.90;;;;;;5090327;28;20206;-79
2020/12/23 07:20:25;;;;;;;5.80;1.90;;;7.90;99.90;;;;;;5090589;28;20227;-78
2020/12/23 07:22:53;;;;;;;5.23;1.60;;;8.00;99.90;;;;;;5090203;28;20221;-79
2020/12/23 07:25:26;;;;;;;10.63;1.83;;;8.00;99.90;;;;;;5089915;28;20601;-79
2020/12/23 07:27:55;;;;;;;11.87;2.27;;;8.00;99.90;;;;;;5090156;28;20285;-79
2020/12/23 07:30:23;;;;;;;7.17;2.10;;;8.00;99.90;;;;;;5090009;28;20284;-79
2020/12/23 07:33:00;;;;;;;5.40;2.00;;;8.10;99.90;;;;;;5095009;28;20680;-79
2020/12/23 07:35:27;;;;;;;8.37;1.80;;;8.10;99.90;;;;;;5090111;28;20221;-79
2020/12/23 07:37:58;;;;;;;10.33;2.47;;;8.10;99.90;;;;;;5090268;28;20207;-79
2020/12/23 07:40:26;;;;;;;10.07;2.63;;;8.10;99.90;;;;;;5090034;28;20223;-79
2020/12/23 07:42:53;;;;;;;8.93;2.50;;;8.10;99.90;;;;;;5090021;28;20226;-79
2020/12/23 07:45:20;;;;;;;8.07;2.30;;;8.10;99.90;;;;;;5089524;28;20206;-79
2020/12/23 07:47:54;;;;;;;11.67;3.03;;;8.10;99.90;;;;;;5089550;28;20665;-78
2020/12/23 07:50:23;;;;;;;9.87;2.87;;;8.10;99.90;;;;;;5089208;28;20898;-79
2020/12/23 07:52:49;;;;;;;11.60;2.87;;;8.20;99.90;;;;;;5089501;28;20798;-79
2020/12/23 07:55:17;;;;;;;11.87;2.67;;;8.10;99.90;;;;;;5089259;28;20230;-79
2020/12/23 07:57:44;;;;;;;11.73;2.70;;;8.20;99.90;;;;;;5089455;28;20198;-79
2020/12/23 08:00:12;;;;;;;12.17;2.73;;;8.20;99.90;;;;;;5089697;28;20247;-78
2020/12/23 08:02:39;;;;;;;7.70;2.57;;;8.20;99.90;;;;;;5090081;28;20212;-78
2020/12/23 08:05:07;;;;;;;10.23;3.10;;;8.10;99.90;;;;;;5089741;28;20217;-80
2020/12/23 08:07:37;;;;;;;11.37;2.87;;;8.20;99.90;;;;;;5089537;28;20230;-79
2020/12/23 08:10:12;;;;;;;11.77;2.77;;;8.20;99.90;;;;;;5100388;28;20202;-79
2020/12/23 08:12:39;;;;;;;13.10;2.83;;;8.20;99.90;;;;;;5099554;28;20197;-79
2020/12/23 08:15:11;;;;;;;9.10;2.67;;;8.20;99.90;;;;;;5097745;28;20201;-80
2020/12/23 08:17:40;;;;;;;8.83;2.57;;;8.20;99.90;;;;;;5098736;28;20660;-80
2020/12/23 08:20:09;;;;;;;7.83;2.27;;;8.20;99.90;;;;;;5097659;28;20238;-82
2020/12/23 08:22:37;;;;;;;8.23;2.33;;;8.20;99.90;;;;;;5094914;28;20560;-81
2020/12/23 08:25:06;;;;;;;9.50;2.13;;;8.20;99.90;;;;;;5094665;28;20230;-81
2020/12/23 08:27:33;;;;;;;8.77;2.37;;;8.20;99.90;;;;;;5088743;28;20203;-81
2020/12/23 08:30:01;;;;;;;9.70;2.47;;;8.20;99.90;;;;;;5091891;28;20209;-82
2020/12/23 08:32:35;;;;;;;10.27;2.80;;;8.20;99.90;;;;;;5092100;28;20577;-81
2020/12/23 08:35:02;;;;;;;9.50;2.60;;;8.20;99.90;;;;;;5089106;28;20638;-80
2020/12/23 08:37:29;;;;;;;8.13;2.43;;;8.20;99.90;;;;;;5105040;28;20321;-81
2020/12/23 08:39:57;;;;;;;9.00;2.50;;;8.30;99.90;;;;;;5087364;28;20252;-82
2020/12/23 08:42:23;;;;;;;13.80;3.13;;;8.30;99.90;;;;;;5087139;28;20665;-82
2020/12/23 08:44:52;;;;;;;10.47;3.00;;;8.30;99.90;;;;;;5087227;28;20222;-81
2020/12/23 08:47:23;;;;;;;10.77;3.13;;;8.30;99.90;;;;;;5086859;28;20206;-82
2020/12/23 08:49:52;;;;;;;7.30;2.93;;;8.20;99.90;;;;;;5087273;28;20248;-83
2020/12/23 08:52:20;;;;;;;9.30;2.60;;;8.30;99.90;;;;;;5086971;28;20207;-82
2020/12/23 08:54:48;;;;;;;12.63;2.67;;;8.30;99.90;;;;;;5086327;28;20709;-82
2020/12/23 08:57:16;;;;;;;9.40;2.23;;;8.30;99.90;;;;;;5086526;28;20213;-82
2020/12/23 08:59:43;;;;;;;13.90;3.13;;;8.40;99.90;;;;;;5086786;28;20276;-80
2020/12/23 09:02:11;;;;;;;12.57;2.90;;;8.40;99.90;;;;;;5096565;28;20289;-82
2020/12/23 09:04:38;;;;;;;8.13;2.80;;;8.40;99.90;;;;;;5106936;28;20297;-84
2020/12/23 09:07:05;;;;;;;32.00;26.83;;;8.40;99.90;;;;;;5095097;28;20266;-87
2020/12/23 09:09:32;;;;;;;14.90;9.70;;;8.40;99.90;;;;;;5097169;28;20896;-85
2020/12/23 09:12:01;;;;;;;14.50;3.37;;;8.50;99.90;;;;;;5090144;28;20785;-83
2020/12/23 09:14:29;;;;;;;13.67;3.20;;;8.40;99.90;;;;;;5088668;28;20216;-83
2020/12/23 09:17:00;;;;;;;11.83;2.53;;;8.50;99.90;;;;;;5106880;28;20210;-82
2020/12/23 09:19:44;;;;;;;11.20;2.97;;;8.50;99.90;;;;;;5103604;28;20317;-82
2020/12/23 09:22:12;;;;;;;11.00;3.17;;;8.50;99.90;;;;;;5106050;28;20202;-81
2020/12/23 09:24:39;;;;;;;11.93;3.23;;;8.50;99.90;;;;;;5106400;28;20229;-82
2020/12/23 09:27:19;;;;;;;9.23;2.67;;;8.50;99.90;;;;;;5106148;28;20202;-83
2020/12/23 09:29:46;;;;;;;8.70;3.43;;;8.50;99.90;;;;;;5105231;28;20206;-83
2020/12/23 09:32:12;;;;;;;12.77;3.20;;;8.50;99.90;;;;;;5105843;28;20771;-81
2020/12/23 09:34:39;;;;;;;10.17;3.37;;;8.50;99.90;;;;;;5106472;28;20253;-82
2020/12/23 09:37:06;;;;;;;11.00;3.50;;;8.50;99.90;;;;;;5093972;28;20700;-82
2020/12/23 09:39:35;;;;;;;11.03;3.33;;;8.50;99.90;;;;;;5085767;28;20735;-82
2020/12/23 09:42:04;;;;;;;12.50;3.30;;;8.60;99.90;;;;;;5086218;28;20210;-83
2020/12/23 09:44:31;;;;;;;13.13;2.67;;;8.60;99.90;;;;;;5095296;28;20221;-81
2020/12/23 09:46:57;;;;;;;7.53;3.20;;;8.60;99.90;;;;;;5100778;28;20260;-82
2020/12/23 09:49:24;;;;;;;11.17;3.10;;;8.70;99.90;;;;;;5106333;28;20209;-82
2020/12/23 09:51:50;;;;;;;10.87;4.13;;;8.70;99.90;;;;;;5103389;27;20211;-82
2020/12/23 09:54:17;;;;;;;14.60;4.03;;;8.70;99.90;;;;;;5087280;28;20244;-74
2020/12/23 09:56:52;;;;;;;13.57;3.87;;;8.70;99.90;;;;;;5087365;28;20211;-76
2020/12/23 09:59:19;;;;;;;8.40;2.93;;;8.80;99.90;;;;;;5104507;28;20282;-76
2020/12/23 10:01:46;;;;;;;11.23;2.90;;;8.80;99.90;;;;;;5107699;28;20191;-76
2020/12/23 10:04:12;;;;;;;8.53;3.20;;;8.80;99.90;;;;;;5107213;28;20691;-79
2020/12/23 10:06:39;;;;;;;10.93;3.17;;;8.80;99.90;;;;;;5095232;28;20306;-76
2020/12/23 10:09:06;;;;;;;5.77;2.40;;;8.80;99.90;;;;;;5103275;28;20292;-81
2020/12/23 10:11:33;;;;;;;11.63;3.50;;;8.90;99.90;;;;;;5107596;28;20206;-80
2020/12/23 10:14:01;;;;;;;13.87;6.63;;;8.90;99.90;;;;;;5100467;28;20581;-78
2020/12/23 10:16:31;;;;;;;27.63;18.80;;;8.90;99.90;;;;;;5098783;28;20205;-79
2020/12/23 10:18:58;;;;;;;12.67;6.70;;;8.90;99.90;;;;;;5098943;28;20273;-81
2020/12/23 10:21:25;;;;;;;9.00;3.20;;;9.00;99.90;;;;;;5094290;28;20198;-81
2020/12/23 10:23:51;;;;;;;6.77;2.40;;;9.00;99.90;;;;;;5101034;28;20710;-81
2020/12/23 10:26:18;;;;;;;6.20;2.40;;;9.00;99.90;;;;;;5107178;28;20672;-81
2020/12/23 10:28:44;;;;;;;8.43;2.70;;;9.00;99.90;;;;;;5107742;28;20208;-81
2020/12/23 10:31:12;;;;;;;10.43;3.40;;;9.00;99.90;;;;;;5105010;28;20210;-81
2020/12/23 10:33:38;;;;;;;9.13;2.20;;;8.90;99.90;;;;;;5098985;28;20221;-81
2020/12/23 10:36:08;;;;;;;8.57;2.70;;;8.90;99.90;;;;;;5096050;28;20207;-81
2020/12/23 10:38:36;;;;;;;8.37;2.50;;;8.80;99.90;;;;;;5087319;28;20653;-81
2020/12/23 10:41:02;;;;;;;8.20;3.00;;;8.80;99.90;;;;;;5089238;28;20266;-81
2020/12/23 10:43:28;;;;;;;11.67;3.07;;;8.70;99.90;;;;;;5091206;28;20253;-81
2020/12/23 10:45:55;;;;;;;7.77;2.57;;;8.70;99.90;;;;;;5090575;28;20205;-81
2020/12/23 10:48:22;;;;;;;8.33;2.10;;;8.70;99.90;;;;;;5090647;28;20236;-81
2020/12/23 10:50:48;;;;;;;9.37;2.30;;;8.70;99.90;;;;;;5090880;28;20203;-80
2020/12/23 10:53:15;;;;;;;8.40;2.80;;;8.70;99.90;;;;;;5100705;28;20676;-81
2020/12/23 10:55:41;;;;;;;9.33;2.83;;;8.70;99.90;;;;;;5111167;28;20699;-81
2020/12/23 10:58:07;;;;;;;8.90;2.77;;;8.60;99.90;;;;;;5110877;28;20297;-80
2020/12/23 11:00:34;;;;;;;8.37;2.43;;;8.60;99.90;;;;;;5111230;28;20226;-80
2020/12/23 11:03:00;;;;;;;7.80;2.57;;;8.60;99.90;;;;;;5111246;28;20234;-81
2020/12/23 11:05:27;;;;;;;10.33;3.00;;;8.60;99.90;;;;;;5110800;28;20304;-80
2020/12/23 11:07:54;;;;;;;10.13;3.13;;;8.60;99.90;;;;;;5111033;28;20206;-80
2020/12/23 11:10:20;;;;;;;7.57;2.93;;;8.60;99.90;;;;;;5111067;28;20213;-80
2020/12/23 11:12:49;;;;;;;10.33;3.17;;;8.60;99.90;;;;;;5110721;28;20867;-80
2020/12/23 11:15:15;;;;;;;7.20;2.83;;;8.60;99.90;;;;;;5110804;28;20210;-81
2020/12/23 11:17:41;;;;;;;7.40;3.17;;;8.60;99.90;;;;;;5110775;28;20565;-81
2020/12/23 11:20:08;;;;;;;9.93;3.80;;;8.60;99.90;;;;;;5110709;27;20226;-81
2020/12/23 11:22:35;;;;;;;8.63;3.63;;;8.60;99.90;;;;;;5110490;28;20229;-81
2020/12/23 11:25:01;;;;;;;9.30;2.90;;;8.60;99.90;;;;;;5110254;28;21069;-81
2020/12/23 11:27:28;;;;;;;9.53;3.30;;;8.60;99.90;;;;;;5110310;28;20206;-80
2020/12/23 11:29:54;;;;;;;10.93;3.40;;;8.60;99.90;;;;;;5110656;28;20297;-81
2020/12/23 11:32:20;;;;;;;15.97;3.90;;;8.60;99.90;;;;;;5100438;28;20203;-83
2020/12/23 11:34:47;;;;;;;16.17;11.40;;;8.60;99.90;;;;;;5096531;28;20662;-83
2020/12/23 11:37:13;;;;;;;18.80;16.90;;;8.50;99.90;;;;;;5098582;28;20194;-81
2020/12/23 11:39:40;;;;;;;11.03;4.17;;;8.60;99.90;;;;;;5090285;28;20250;-81
2020/12/23 11:42:07;;;;;;;11.90;4.80;;;8.60;99.90;;;;;;5089848;28;20211;-82
2020/12/23 11:44:34;;;;;;;9.27;4.00;;;8.50;99.90;;;;;;5093438;28;20202;-82
2020/12/23 11:47:00;;;;;;;12.70;4.80;;;8.50;99.90;;;;;;5090040;28;20689;-82
2020/12/23 11:49:27;;;;;;;11.13;4.10;;;8.50;99.90;;;;;;5089647;28;20297;-83
2020/12/23 11:51:53;;;;;;;8.90;4.30;;;8.50;99.90;;;;;;5089354;28;20260;-82
2020/12/23 11:54:20;;;;;;;12.97;4.60;;;8.50;99.90;;;;;;5089692;28;20238;-81
2020/12/23 11:56:49;;;;;;;12.67;4.50;;;8.50;99.90;;;;;;5089597;28;20202;-82
2020/12/23 11:59:16;;;;;;;9.23;4.80;;;8.50;99.90;;;;;;5089242;28;20961;-82
2020/12/23 12:01:43;;;;;;;12.37;5.07;;;8.50;99.90;;;;;;5089944;28;20589;-82
2020/12/23 12:04:09;;;;;;;14.63;4.70;;;8.50;99.90;;;;;;5089500;28;20203;-81
2020/12/23 12:06:37;;;;;;;10.97;4.53;;;8.50;99.90;;;;;;5089783;28;20256;-82
2020/12/23 12:09:04;;;;;;;11.00;4.97;;;8.50;99.90;;;;;;5089749;28;20209;-82
2020/12/23 12:11:30;;;;;;;14.60;5.40;;;8.50;99.90;;;;;;5089689;28;20294;-80
2020/12/23 12:13:58;;;;;;;10.70;4.93;;;8.50;99.90;;;;;;5089678;28;20203;-82
2020/12/23 12:16:26;;;;;;;12.67;5.80;;;8.60;99.90;;;;;;5089397;28;20681;-82
2020/12/23 12:18:53;;;;;;;16.03;4.67;;;8.50;99.90;;;;;;5089761;28;20211;-81
2020/12/23 12:21:19;;;;;;;10.87;4.93;;;8.50;99.90;;;;;;5089095;28;20237;-82
2020/12/23 12:23:45;;;;;;;15.37;5.57;;;8.60;99.90;;;;;;5089017;28;20227;-82
2020/12/23 12:26:12;;;;;;;11.03;4.93;;;8.60;99.90;;;;;;5094328;28;20202;-82
2020/12/23 12:28:38;;;;;;;12.30;4.90;;;8.60;99.90;;;;;;5100119;28;20289;-81
2020/12/23 12:31:05;;;;;;;11.27;4.30;;;8.60;99.90;;;;;;5089330;28;20303;-82
2020/12/23 12:33:32;;;;;;;15.10;4.50;;;8.60;99.90;;;;;;5088579;28;20203;-82
2020/12/23 12:35:58;;;;;;;14.30;4.73;;;8.60;99.90;;;;;;5088936;28;20575;-82
2020/12/23 12:38:25;;;;;;;9.40;4.33;;;8.60;99.90;;;;;;5089169;28;20202;-81
2020/12/23 12:40:51;;;;;;;11.50;4.30;;;8.50;99.90;;;;;;5089033;28;20233;-82
2020/12/23 12:43:18;;;;;;;10.37;4.10;;;8.50;99.90;;;;;;5088839;28;20242;-82
2020/12/23 12:45:44;;;;;;;15.90;5.10;;;8.60;99.90;;;;;;5089138;28;20256;-82
2020/12/23 12:48:11;;;;;;;13.03;4.77;;;8.60;99.90;;;;;;5088707;28;20213;-83
2020/12/23 12:50:37;;;;;;;8.80;3.97;;;8.60;99.90;;;;;;5088423;28;20207;-83
2020/12/23 12:53:04;;;;;;;13.47;4.97;;;8.60;99.90;;;;;;5097252;28;20206;-82
2020/12/23 12:55:30;;;;;;;18.00;4.77;;;8.60;99.90;;;;;;5102591;28;20190;-84